sensor_id;sensor_type;location;lat;lon;timestamp;pressure;altitude;pressure_sealevel;temperature;humidity
41688;BME280;27371;42.686;23.362;2023-01-29T00:01:15;162126.63;;;-0.29;85.41
41688;BME280;27371;42.686;23.362;2023-01-29T00:03:41;162131.94;;;-0.27;85.45
41688;BME280;27371;42.686;23.362;2023-01-29T00:06:07;162145.22;;;-0.21;85.57
41688;BME280;27371;42.686;23.362;2023-01-29T00:08:34;162127.94;;;-0.28;85.24
41688;BME280;27371;42.686;23.362;2023-01-29T00:11:04;162157.13;;;-0.17;85.12
41688;BME280;27371;42.686;23.362;2023-01-29T00:13:30;162150.50;;;-0.19;85.57
41688;BME280;27371;42.686;23.362;2023-01-29T00:15:57;162151.84;;;-0.19;85.59
41688;BME280;27371;42.686;23.362;2023-01-29T00:18:24;162134.56;;;-0.26;85.70
41688;BME280;27371;42.686;23.362;2023-01-29T00:20:49;162157.13;;;-0.17;85.92
41688;BME280;27371;42.686;23.362;2023-01-29T00:23:16;162153.16;;;-0.18;85.86
41688;BME280;27371;42.686;23.362;2023-01-29T00:25:42;162119.97;;;-0.31;85.78
41688;BME280;27371;42.686;23.362;2023-01-29T00:28:08;162100.06;;;-0.39;86.00
41688;BME280;27371;42.686;23.362;2023-01-29T00:30:35;162092.13;;;-0.42;85.91
41688;BME280;27371;42.686;23.362;2023-01-29T00:33:01;162080.22;;;-0.47;86.04
41688;BME280;27371;42.686;23.362;2023-01-29T00:35:27;162065.63;;;-0.52;86.87
41688;BME280;27371;42.686;23.362;2023-01-29T00:37:54;162065.63;;;-0.52;87.15
41688;BME280;27371;42.686;23.362;2023-01-29T00:40:20;162069.56;;;-0.51;87.26
41688;BME280;27371;42.686;23.362;2023-01-29T00:42:45;162062.94;;;-0.53;87.47
41688;BME280;27371;42.686;23.362;2023-01-29T00:45:29;162065.63;;;-0.52;87.73
41688;BME280;27371;42.686;23.362;2023-01-29T00:47:55;162070.88;;;-0.50;87.89
41688;BME280;27371;42.686;23.362;2023-01-29T00:50:20;162053.66;;;-0.57;87.76
41688;BME280;27371;42.686;23.362;2023-01-29T00:52:46;162070.88;;;-0.50;87.99
41688;BME280;27371;42.686;23.362;2023-01-29T00:55:12;162072.25;;;-0.50;88.21
41688;BME280;27371;42.686;23.362;2023-01-29T00:57:38;162057.63;;;-0.55;88.47
41688;BME280;27371;42.686;23.362;2023-01-29T01:00:06;162064.25;;;-0.53;88.48
41688;BME280;27371;42.686;23.362;2023-01-29T01:02:33;162072.25;;;-0.50;88.75
41688;BME280;27371;42.686;23.362;2023-01-29T01:05:17;162069.56;;;-0.51;88.73
41688;BME280;27371;42.686;23.362;2023-01-29T01:07:47;162062.94;;;-0.53;88.78
41688;BME280;27371;42.686;23.362;2023-01-29T01:10:16;162074.88;;;-0.49;89.18
41688;BME280;27371;42.686;23.362;2023-01-29T01:12:46;162072.25;;;-0.50;89.50
41688;BME280;27371;42.686;23.362;2023-01-29T01:15:11;162073.56;;;-0.49;89.32
41688;BME280;27371;42.686;23.362;2023-01-29T01:17:37;162076.22;;;-0.48;89.20
41688;BME280;27371;42.686;23.362;2023-01-29T01:20:03;162074.88;;;-0.49;88.96
41688;BME280;27371;42.686;23.362;2023-01-29T01:22:29;162061.63;;;-0.54;88.71
41688;BME280;27371;42.686;23.362;2023-01-29T01:24:56;162052.34;;;-0.57;88.71
41688;BME280;27371;42.686;23.362;2023-01-29T01:27:21;162045.72;;;-0.60;89.00
41688;BME280;27371;42.686;23.362;2023-01-29T01:29:47;162048.34;;;-0.59;89.12
41688;BME280;27371;42.686;23.362;2023-01-29T01:32:13;162032.44;;;-0.65;89.11
41688;BME280;27371;42.686;23.362;2023-01-29T01:34:38;162049.66;;;-0.58;89.00
41688;BME280;27371;42.686;23.362;2023-01-29T01:37:04;162028.44;;;-0.67;89.10
41688;BME280;27371;42.686;23.362;2023-01-29T01:39:29;162045.72;;;-0.60;88.70
41688;BME280;27371;42.686;23.362;2023-01-29T01:41:55;162028.44;;;-0.67;89.02
41688;BME280;27371;42.686;23.362;2023-01-29T01:47:33;162024.47;;;-0.68;89.17
41688;BME280;27371;42.686;23.362;2023-01-29T01:50:23;162035.06;;;-0.64;89.39
41688;BME280;27371;42.686;23.362;2023-01-29T01:52:56;162037.75;;;-0.63;89.40
41688;BME280;27371;42.686;23.362;2023-01-29T01:55:25;162029.81;;;-0.66;89.46
41688;BME280;27371;42.686;23.362;2023-01-29T01:57:58;162045.72;;;-0.60;89.50
41688;BME280;27371;42.686;23.362;2023-01-29T02:00:27;162053.66;;;-0.57;89.69
41688;BME280;27371;42.686;23.362;2023-01-29T02:02:53;162023.16;;;-0.69;89.66
41688;BME280;27371;42.686;23.362;2023-01-29T02:05:38;162053.66;;;-0.57;89.59
41688;BME280;27371;42.686;23.362;2023-01-29T02:08:44;162064.25;;;-0.53;89.71
41688;BME280;27371;42.686;23.362;2023-01-29T02:11:30;162054.97;;;-0.56;89.75
41688;BME280;27371;42.686;23.362;2023-01-29T02:13:56;162051.03;;;-0.58;90.00
41688;BME280;27371;42.686;23.362;2023-01-29T02:16:22;162072.25;;;-0.50;89.91
41688;BME280;27371;42.686;23.362;2023-01-29T02:18:48;162049.66;;;-0.58;89.80
41688;BME280;27371;42.686;23.362;2023-01-29T02:26:52;162048.34;;;-0.59;90.06
41688;BME280;27371;42.686;23.362;2023-01-29T02:29:42;162072.25;;;-0.50;89.99
41688;BME280;27371;42.686;23.362;2023-01-29T02:34:59;162084.16;;;-0.45;90.29
41688;BME280;27371;42.686;23.362;2023-01-29T02:37:56;162090.78;;;-0.42;90.03
41688;BME280;27371;42.686;23.362;2023-01-29T02:40:28;162078.84;;;-0.47;90.28
41688;BME280;27371;42.686;23.362;2023-01-29T02:43:03;162080.22;;;-0.47;90.13
41688;BME280;27371;42.686;23.362;2023-01-29T02:48:22;162080.22;;;-0.47;90.46
41688;BME280;27371;42.686;23.362;2023-01-29T02:50:55;162080.22;;;-0.47;90.50
41688;BME280;27371;42.686;23.362;2023-01-29T02:53:37;162070.88;;;-0.50;90.46
41688;BME280;27371;42.686;23.362;2023-01-29T02:56:16;162084.16;;;-0.45;90.48
41688;BME280;27371;42.686;23.362;2023-01-29T02:59:14;162086.84;;;-0.44;90.54
41688;BME280;27371;42.686;23.362;2023-01-29T03:01:47;162086.84;;;-0.44;90.46
41688;BME280;27371;42.686;23.362;2023-01-29T03:04:19;162064.25;;;-0.53;90.42
41688;BME280;27371;42.686;23.362;2023-01-29T03:06:51;162090.78;;;-0.42;90.49
41688;BME280;27371;42.686;23.362;2023-01-29T03:09:24;162092.13;;;-0.42;90.68
41688;BME280;27371;42.686;23.362;2023-01-29T03:11:53;162096.13;;;-0.40;90.76
41688;BME280;27371;42.686;23.362;2023-01-29T03:14:37;162098.75;;;-0.39;90.68
41688;BME280;27371;42.686;23.362;2023-01-29T03:17:25;162094.81;;;-0.41;90.74
41688;BME280;27371;42.686;23.362;2023-01-29T03:19:55;162097.44;;;-0.40;90.77
41688;BME280;27371;42.686;23.362;2023-01-29T03:22:43;162104.06;;;-0.37;90.72
41688;BME280;27371;42.686;23.362;2023-01-29T03:25:11;162092.13;;;-0.42;90.59
41688;BME280;27371;42.686;23.362;2023-01-29T03:28:00;162098.75;;;-0.39;90.71
41688;BME280;27371;42.686;23.362;2023-01-29T03:30:47;162104.06;;;-0.37;90.59
41688;BME280;27371;42.686;23.362;2023-01-29T03:33:39;162118.66;;;-0.32;90.74
41688;BME280;27371;42.686;23.362;2023-01-29T03:36:14;162118.66;;;-0.32;90.77
41688;BME280;27371;42.686;23.362;2023-01-29T03:38:42;162113.34;;;-0.34;90.56
41688;BME280;27371;42.686;23.362;2023-01-29T03:41:13;162112.03;;;-0.34;90.36
41688;BME280;27371;42.686;23.362;2023-01-29T03:43:52;162116.03;;;-0.33;90.20
41688;BME280;27371;42.686;23.362;2023-01-29T03:46:24;162121.31;;;-0.31;90.05
41688;BME280;27371;42.686;23.362;2023-01-29T03:54:30;162131.94;;;-0.27;90.14
41688;BME280;27371;42.686;23.362;2023-01-29T03:57:03;162125.31;;;-0.29;90.05
41688;BME280;27371;42.686;23.362;2023-01-29T03:59:38;162134.56;;;-0.26;90.05
41688;BME280;27371;42.686;23.362;2023-01-29T04:02:11;162130.63;;;-0.27;89.95
41688;BME280;27371;42.686;23.362;2023-01-29T04:04:41;162129.25;;;-0.28;90.03
41688;BME280;27371;42.686;23.362;2023-01-29T04:07:17;162119.97;;;-0.31;90.03
41688;BME280;27371;42.686;23.362;2023-01-29T04:09:56;162119.97;;;-0.31;90.03
41688;BME280;27371;42.686;23.362;2023-01-29T04:12:25;162100.06;;;-0.39;90.18
41688;BME280;27371;42.686;23.362;2023-01-29T04:14:54;162121.31;;;-0.31;90.17
41688;BME280;27371;42.686;23.362;2023-01-29T04:17:26;162130.63;;;-0.27;90.40
41688;BME280;27371;42.686;23.362;2023-01-29T04:19:54;162133.25;;;-0.26;90.43
41688;BME280;27371;42.686;23.362;2023-01-29T04:22:38;162125.31;;;-0.29;90.15
41688;BME280;27371;42.686;23.362;2023-01-29T04:25:10;162121.31;;;-0.31;90.13
41688;BME280;27371;42.686;23.362;2023-01-29T04:34:18;162139.91;;;-0.24;90.19
41688;BME280;27371;42.686;23.362;2023-01-29T04:37:06;162143.91;;;-0.22;90.39
41688;BME280;27371;42.686;23.362;2023-01-29T04:40:06;162112.03;;;-0.34;89.44
41688;BME280;27371;42.686;23.362;2023-01-29T04:42:47;162082.84;;;-0.46;89.91
41688;BME280;27371;42.686;23.362;2023-01-29T04:51:23;162041.72;;;-0.61;90.44
41688;BME280;27371;42.686;23.362;2023-01-29T04:56:38;162041.72;;;-0.61;90.74
41688;BME280;27371;42.686;23.362;2023-01-29T04:59:08;162033.75;;;-0.64;90.55
41688;BME280;27371;42.686;23.362;2023-01-29T05:01:37;162032.44;;;-0.65;90.60
41688;BME280;27371;42.686;23.362;2023-01-29T05:04:07;162052.34;;;-0.57;90.95
41688;BME280;27371;42.686;23.362;2023-01-29T05:06:34;162069.56;;;-0.51;91.08
41688;BME280;27371;42.686;23.362;2023-01-29T05:09:02;162077.53;;;-0.48;90.99
41688;BME280;27371;42.686;23.362;2023-01-29T05:11:29;162078.84;;;-0.47;90.95
41688;BME280;27371;42.686;23.362;2023-01-29T05:13:58;162104.06;;;-0.37;90.53
41688;BME280;27371;42.686;23.362;2023-01-29T05:16:28;162072.25;;;-0.50;90.70
41688;BME280;27371;42.686;23.362;2023-01-29T05:18:54;162104.06;;;-0.37;90.50
41688;BME280;27371;42.686;23.362;2023-01-29T05:21:20;162098.75;;;-0.39;90.54
41688;BME280;27371;42.686;23.362;2023-01-29T05:24:18;162125.31;;;-0.29;90.52
41688;BME280;27371;42.686;23.362;2023-01-29T05:26:45;162126.63;;;-0.29;90.50
41688;BME280;27371;42.686;23.362;2023-01-29T05:29:30;162141.22;;;-0.23;90.50
41688;BME280;27371;42.686;23.362;2023-01-29T05:31:55;162146.53;;;-0.21;90.14
41688;BME280;27371;42.686;23.362;2023-01-29T05:34:21;162139.91;;;-0.24;89.46
41688;BME280;27371;42.686;23.362;2023-01-29T05:36:46;162089.47;;;-0.43;88.30
41688;BME280;27371;42.686;23.362;2023-01-29T05:39:12;162062.94;;;-0.53;88.34
41688;BME280;27371;42.686;23.362;2023-01-29T05:41:37;162045.72;;;-0.60;88.52
41688;BME280;27371;42.686;23.362;2023-01-29T05:44:03;162053.66;;;-0.57;89.53
41688;BME280;27371;42.686;23.362;2023-01-29T05:46:28;162054.97;;;-0.56;89.86
41688;BME280;27371;42.686;23.362;2023-01-29T05:48:54;162058.97;;;-0.55;90.21
41688;BME280;27371;42.686;23.362;2023-01-29T05:51:20;162061.63;;;-0.54;90.38
41688;BME280;27371;42.686;23.362;2023-01-29T05:53:45;162064.25;;;-0.53;90.33
41688;BME280;27371;42.686;23.362;2023-01-29T05:56:11;162062.94;;;-0.53;90.62
41688;BME280;27371;42.686;23.362;2023-01-29T05:58:36;162064.25;;;-0.53;91.07
41688;BME280;27371;42.686;23.362;2023-01-29T06:01:14;162089.47;;;-0.43;91.10
41688;BME280;27371;42.686;23.362;2023-01-29T06:03:40;162114.66;;;-0.33;91.16
41688;BME280;27371;42.686;23.362;2023-01-29T06:06:06;162122.66;;;-0.30;91.27
41688;BME280;27371;42.686;23.362;2023-01-29T06:08:32;162110.72;;;-0.35;90.39
41688;BME280;27371;42.686;23.362;2023-01-29T06:10:57;162090.78;;;-0.42;90.13
41688;BME280;27371;42.686;23.362;2023-01-29T06:13:23;162078.84;;;-0.47;89.85
41688;BME280;27371;42.686;23.362;2023-01-29T06:15:48;162080.22;;;-0.47;89.83
41688;BME280;27371;42.686;23.362;2023-01-29T06:18:14;162074.88;;;-0.49;90.71
41688;BME280;27371;42.686;23.362;2023-01-29T06:20:39;162088.16;;;-0.43;91.34
41688;BME280;27371;42.686;23.362;2023-01-29T06:23:05;162093.44;;;-0.41;91.51
41688;BME280;27371;42.686;23.362;2023-01-29T06:25:30;162112.03;;;-0.34;91.70
41688;BME280;27371;42.686;23.362;2023-01-29T06:27:56;162112.03;;;-0.34;91.92
41688;BME280;27371;42.686;23.362;2023-01-29T06:30:22;162114.66;;;-0.33;91.84
41688;BME280;27371;42.686;23.362;2023-01-29T06:32:47;162133.25;;;-0.26;91.76
41688;BME280;27371;42.686;23.362;2023-01-29T06:35:13;162141.22;;;-0.23;91.69
41688;BME280;27371;42.686;23.362;2023-01-29T06:37:38;162138.59;;;-0.24;91.76
41688;BME280;27371;42.686;23.362;2023-01-29T06:40:05;162154.50;;;-0.18;91.97
41688;BME280;27371;42.686;23.362;2023-01-29T06:42:30;162149.16;;;-0.20;91.76
41688;BME280;27371;42.686;23.362;2023-01-29T06:44:56;162167.75;;;-0.13;91.76
41688;BME280;27371;42.686;23.362;2023-01-29T06:47:23;162177.03;;;-0.09;91.66
41688;BME280;27371;42.686;23.362;2023-01-29T06:49:49;162181.03;;;-0.08;91.59
41688;BME280;27371;42.686;23.362;2023-01-29T06:52:14;162182.38;;;-0.07;91.28
41688;BME280;27371;42.686;23.362;2023-01-29T06:54:40;162185.00;;;-0.06;91.39
41688;BME280;27371;42.686;23.362;2023-01-29T06:57:05;162196.97;;;-0.02;91.24
41688;BME280;27371;42.686;23.362;2023-01-29T06:59:31;162185.00;;;-0.06;91.03
41688;BME280;27371;42.686;23.362;2023-01-29T07:01:56;162175.72;;;-0.10;90.91
41688;BME280;27371;42.686;23.362;2023-01-29T07:04:22;162190.31;;;-0.04;90.87
41688;BME280;27371;42.686;23.362;2023-01-29T07:06:47;162196.97;;;-0.02;90.62
41688;BME280;27371;42.686;23.362;2023-01-29T07:09:13;162198.28;;;-0.01;91.00
41688;BME280;27371;42.686;23.362;2023-01-29T07:11:39;162204.91;;;0.02;90.81
41688;BME280;27371;42.686;23.362;2023-01-29T07:14:04;162216.88;;;0.06;90.75
41688;BME280;27371;42.686;23.362;2023-01-29T07:16:30;162204.91;;;0.02;90.48
41688;BME280;27371;42.686;23.362;2023-01-29T07:18:56;162224.84;;;0.09;90.13
41688;BME280;27371;42.686;23.362;2023-01-29T07:21:22;162203.59;;;0.01;89.98
41688;BME280;27371;42.686;23.362;2023-01-29T07:23:47;162232.78;;;0.12;89.71
41688;BME280;27371;42.686;23.362;2023-01-29T07:26:13;162240.75;;;0.15;89.85
41688;BME280;27371;42.686;23.362;2023-01-29T07:28:39;162226.16;;;0.10;89.67
41688;BME280;27371;42.686;23.362;2023-01-29T07:31:05;162244.75;;;0.17;89.28
41688;BME280;27371;42.686;23.362;2023-01-29T07:33:31;162242.06;;;0.16;88.98
41688;BME280;27371;42.686;23.362;2023-01-29T07:35:57;162256.66;;;0.21;88.89
41688;BME280;27371;42.686;23.362;2023-01-29T07:38:22;162250.03;;;0.19;88.41
41688;BME280;27371;42.686;23.362;2023-01-29T07:40:48;162263.31;;;0.24;88.56
41688;BME280;27371;42.686;23.362;2023-01-29T07:43:14;162269.94;;;0.27;88.38
41688;BME280;27371;42.686;23.362;2023-01-29T07:45:40;162276.56;;;0.29;88.28
41688;BME280;27371;42.686;23.362;2023-01-29T07:48:09;162277.91;;;0.30;88.17
41688;BME280;27371;42.686;23.362;2023-01-29T07:50:36;162272.63;;;0.28;88.38
41688;BME280;27371;42.686;23.362;2023-01-29T07:53:02;162263.31;;;0.24;88.49
41688;BME280;27371;42.686;23.362;2023-01-29T07:55:28;162257.97;;;0.22;88.77
41688;BME280;27371;42.686;23.362;2023-01-29T07:57:55;162267.31;;;0.26;88.86
41688;BME280;27371;42.686;23.362;2023-01-29T08:00:21;162259.34;;;0.22;88.82
41688;BME280;27371;42.686;23.362;2023-01-29T08:02:46;162261.97;;;0.24;89.02
41688;BME280;27371;42.686;23.362;2023-01-29T08:05:12;162261.97;;;0.24;89.03
41688;BME280;27371;42.686;23.362;2023-01-29T08:07:37;162279.22;;;0.30;88.89
41688;BME280;27371;42.686;23.362;2023-01-29T08:10:03;162279.22;;;0.30;88.96
41688;BME280;27371;42.686;23.362;2023-01-29T08:12:29;162284.53;;;0.32;88.77
41688;BME280;27371;42.686;23.362;2023-01-29T08:14:54;162285.84;;;0.33;88.88
41688;BME280;27371;42.686;23.362;2023-01-29T08:17:20;162291.19;;;0.35;88.60
41688;BME280;27371;42.686;23.362;2023-01-29T08:19:45;162287.22;;;0.33;88.21
41688;BME280;27371;42.686;23.362;2023-01-29T08:22:10;162297.81;;;0.37;88.11
41688;BME280;27371;42.686;23.362;2023-01-29T08:24:36;162297.81;;;0.37;87.83
41688;BME280;27371;42.686;23.362;2023-01-29T08:27:02;162315.06;;;0.44;87.60
41688;BME280;27371;42.686;23.362;2023-01-29T08:29:27;162333.66;;;0.51;87.46
41688;BME280;27371;42.686;23.362;2023-01-29T08:31:53;162344.31;;;0.55;87.15
41688;BME280;27371;42.686;23.362;2023-01-29T08:34:19;162364.19;;;0.63;87.01
41688;BME280;27371;42.686;23.362;2023-01-29T08:36:44;162372.16;;;0.66;86.68
41688;BME280;27371;42.686;23.362;2023-01-29T08:39:11;162380.16;;;0.69;86.10
41688;BME280;27371;42.686;23.362;2023-01-29T08:41:37;162372.16;;;0.66;85.19
41688;BME280;27371;42.686;23.362;2023-01-29T08:44:03;162362.88;;;0.62;85.44
41688;BME280;27371;42.686;23.362;2023-01-29T08:46:29;162374.81;;;0.67;85.32
41688;BME280;27371;42.686;23.362;2023-01-29T08:48:55;162376.16;;;0.68;85.09
41688;BME280;27371;42.686;23.362;2023-01-29T08:51:20;162388.13;;;0.72;85.63
41688;BME280;27371;42.686;23.362;2023-01-29T08:53:46;162388.13;;;0.72;85.09
41688;BME280;27371;42.686;23.362;2023-01-29T08:56:11;162377.47;;;0.68;84.54
41688;BME280;27371;42.686;23.362;2023-01-29T08:58:37;162388.13;;;0.72;84.22
41688;BME280;27371;42.686;23.362;2023-01-29T09:01:07;162382.78;;;0.70;84.59
41688;BME280;27371;42.686;23.362;2023-01-29T09:03:33;162394.75;;;0.75;84.39
41688;BME280;27371;42.686;23.362;2023-01-29T09:05:59;162400.03;;;0.77;84.28
41688;BME280;27371;42.686;23.362;2023-01-29T09:08:24;162400.03;;;0.77;83.85
41688;BME280;27371;42.686;23.362;2023-01-29T09:10:50;162421.28;;;0.85;84.90
41688;BME280;27371;42.686;23.362;2023-01-29T09:13:15;162429.25;;;0.88;84.69
41688;BME280;27371;42.686;23.362;2023-01-29T09:15:41;162450.50;;;0.96;84.25
41688;BME280;27371;42.686;23.362;2023-01-29T09:18:06;162478.38;;;1.07;86.49
41688;BME280;27371;42.686;23.362;2023-01-29T09:20:32;162445.22;;;0.94;83.93
41688;BME280;27371;42.686;23.362;2023-01-29T09:22:57;162406.69;;;0.79;83.13
41688;BME280;27371;42.686;23.362;2023-01-29T09:25:23;162389.44;;;0.73;83.48
41688;BME280;27371;42.686;23.362;2023-01-29T09:27:49;162361.53;;;0.62;83.52
41688;BME280;27371;42.686;23.362;2023-01-29T09:30:15;162344.31;;;0.55;83.72
41688;BME280;27371;42.686;23.362;2023-01-29T09:32:41;162338.97;;;0.53;83.60
41688;BME280;27371;42.686;23.362;2023-01-29T09:35:07;162336.28;;;0.52;83.92
41688;BME280;27371;42.686;23.362;2023-01-29T09:37:33;162323.06;;;0.47;83.99
41688;BME280;27371;42.686;23.362;2023-01-29T09:39:58;162324.38;;;0.48;83.52
41688;BME280;27371;42.686;23.362;2023-01-29T09:42:33;162271.25;;;0.27;83.00
41688;BME280;27371;42.686;23.362;2023-01-29T09:45:12;162263.31;;;0.24;82.88
41688;BME280;27371;42.686;23.362;2023-01-29T09:47:39;162248.69;;;0.18;83.67
41688;BME280;27371;42.686;23.362;2023-01-29T09:50:12;162273.94;;;0.28;84.61
41688;BME280;27371;42.686;23.362;2023-01-29T09:55:15;162296.50;;;0.37;84.76
41688;BME280;27371;42.686;23.362;2023-01-29T09:57:48;162297.81;;;0.37;84.97
41688;BME280;27371;42.686;23.362;2023-01-29T10:16:52;162299.13;;;0.38;85.14
41688;BME280;27371;42.686;23.362;2023-01-29T10:19:47;162291.19;;;0.35;84.87
41688;BME280;27371;42.686;23.362;2023-01-29T10:25:09;162283.22;;;0.32;85.05
41688;BME280;27371;42.686;23.362;2023-01-29T10:27:38;162296.50;;;0.37;85.10
41688;BME280;27371;42.686;23.362;2023-01-29T10:30:34;162301.81;;;0.39;85.16
41688;BME280;27371;42.686;23.362;2023-01-29T10:33:04;162300.44;;;0.38;85.08
41688;BME280;27371;42.686;23.362;2023-01-29T10:35:33;162292.50;;;0.35;84.85
41688;BME280;27371;42.686;23.362;2023-01-29T10:38:17;162285.84;;;0.33;85.19
41688;BME280;27371;42.686;23.362;2023-01-29T11:00:11;162323.06;;;0.47;85.76
41688;BME280;27371;42.686;23.362;2023-01-29T11:02:45;162321.69;;;0.47;85.47
41688;BME280;27371;42.686;23.362;2023-01-29T11:05:24;162344.31;;;0.55;85.66
41688;BME280;27371;42.686;23.362;2023-01-29T11:08:01;162349.56;;;0.57;85.42
41688;BME280;27371;42.686;23.362;2023-01-29T11:10:30;162354.91;;;0.59;85.51
41688;BME280;27371;42.686;23.362;2023-01-29T11:12:57;162354.91;;;0.59;84.75
41688;BME280;27371;42.686;23.362;2023-01-29T11:15:27;162340.31;;;0.54;84.79
41688;BME280;27371;42.686;23.362;2023-01-29T11:18:07;162337.66;;;0.53;84.68
41688;BME280;27371;42.686;23.362;2023-01-29T11:20:39;162361.53;;;0.62;85.34
41688;BME280;27371;42.686;23.362;2023-01-29T11:23:04;162381.47;;;0.70;85.09
41688;BME280;27371;42.686;23.362;2023-01-29T11:25:30;162412.00;;;0.81;85.57
41688;BME280;27371;42.686;23.362;2023-01-29T11:28:02;162427.91;;;0.87;84.98
41688;BME280;27371;42.686;23.362;2023-01-29T11:30:38;162455.81;;;0.98;84.85
41688;BME280;27371;42.686;23.362;2023-01-29T11:35:34;162433.25;;;0.89;84.47
41688;BME280;27371;42.686;23.362;2023-01-29T11:38:08;162430.59;;;0.88;83.81
41688;BME280;27371;42.686;23.362;2023-01-29T11:40:38;162429.25;;;0.88;84.10
41688;BME280;27371;42.686;23.362;2023-01-29T11:43:28;162441.22;;;0.93;84.23
41688;BME280;27371;42.686;23.362;2023-01-29T11:46:02;162445.22;;;0.94;84.13
41688;BME280;27371;42.686;23.362;2023-01-29T11:48:49;162438.56;;;0.92;83.31
41688;BME280;27371;42.686;23.362;2023-01-29T11:51:26;162422.59;;;0.85;82.78
41688;BME280;27371;42.686;23.362;2023-01-29T11:53:55;162429.25;;;0.88;83.00
41688;BME280;27371;42.686;23.362;2023-01-29T11:56:33;162425.28;;;0.86;83.26
41688;BME280;27371;42.686;23.362;2023-01-29T11:59:04;162421.28;;;0.85;83.35
41688;BME280;27371;42.686;23.362;2023-01-29T12:01:36;162430.59;;;0.88;83.56
41688;BME280;27371;42.686;23.362;2023-01-29T12:04:10;162409.38;;;0.80;83.57
41688;BME280;27371;42.686;23.362;2023-01-29T12:06:41;162421.28;;;0.85;83.53
41688;BME280;27371;42.686;23.362;2023-01-29T12:09:10;162435.88;;;0.91;83.90
41688;BME280;27371;42.686;23.362;2023-01-29T12:11:39;162439.88;;;0.92;83.61
41688;BME280;27371;42.686;23.362;2023-01-29T12:14:32;162465.09;;;1.02;84.02
41688;BME280;27371;42.686;23.362;2023-01-29T12:17:00;162466.47;;;1.02;83.47
41688;BME280;27371;42.686;23.362;2023-01-29T12:19:45;162463.78;;;1.01;83.55
41688;BME280;27371;42.686;23.362;2023-01-29T12:24:55;162439.88;;;0.92;83.05
41688;BME280;27371;42.686;23.362;2023-01-29T12:27:45;162455.81;;;0.98;82.87
41688;BME280;27371;42.686;23.362;2023-01-29T12:30:19;162469.09;;;1.03;82.35
41688;BME280;27371;42.686;23.362;2023-01-29T12:35:28;162482.38;;;1.08;81.52
41688;BME280;27371;42.686;23.362;2023-01-29T12:37:57;162458.44;;;0.99;81.38
41688;BME280;27371;42.686;23.362;2023-01-29T12:40:28;162451.84;;;0.97;81.01
41688;BME280;27371;42.686;23.362;2023-01-29T12:43:02;162442.53;;;0.93;81.40
41688;BME280;27371;42.686;23.362;2023-01-29T12:45:29;162461.13;;;1.00;81.49
41688;BME280;27371;42.686;23.362;2023-01-29T12:48:01;162469.09;;;1.03;81.72
41688;BME280;27371;42.686;23.362;2023-01-29T12:50:34;162486.34;;;1.10;82.18
41688;BME280;27371;42.686;23.362;2023-01-29T12:53:24;162491.66;;;1.12;81.97
41688;BME280;27371;42.686;23.362;2023-01-29T12:55:55;162507.59;;;1.18;82.08
41688;BME280;27371;42.686;23.362;2023-01-29T12:58:36;162512.91;;;1.20;81.90
41688;BME280;27371;42.686;23.362;2023-01-29T13:01:27;162502.31;;;1.16;81.45
41688;BME280;27371;42.686;23.362;2023-01-29T13:04:15;162502.31;;;1.16;81.43
41688;BME280;27371;42.686;23.362;2023-01-29T13:06:53;162489.03;;;1.11;81.11
41688;BME280;27371;42.686;23.362;2023-01-29T13:09:27;162473.09;;;1.05;80.60
41688;BME280;27371;42.686;23.362;2023-01-29T13:11:55;162475.75;;;1.06;81.13
41688;BME280;27371;42.686;23.362;2023-01-29T13:14:59;162473.09;;;1.05;80.97
41688;BME280;27371;42.686;23.362;2023-01-29T13:17:42;162474.44;;;1.05;81.18
41688;BME280;27371;42.686;23.362;2023-01-29T13:20:17;162473.09;;;1.05;80.99
41688;BME280;27371;42.686;23.362;2023-01-29T13:22:45;162459.81;;;1.00;80.65
41688;BME280;27371;42.686;23.362;2023-01-29T13:25:16;162434.56;;;0.90;80.55
41688;BME280;27371;42.686;23.362;2023-01-29T13:27:43;162425.28;;;0.86;80.46
41688;BME280;27371;42.686;23.362;2023-01-29T13:30:30;162461.13;;;1.00;80.77
41688;BME280;27371;42.686;23.362;2023-01-29T13:32:58;162429.25;;;0.88;80.75
41688;BME280;27371;42.686;23.362;2023-01-29T13:35:43;162427.91;;;0.87;80.69
41688;BME280;27371;42.686;23.362;2023-01-29T13:38:29;162433.25;;;0.89;80.76
41688;BME280;27371;42.686;23.362;2023-01-29T13:40:59;162439.88;;;0.92;81.36
41688;BME280;27371;42.686;23.362;2023-01-29T13:43:26;162435.88;;;0.91;81.28
41688;BME280;27371;42.686;23.362;2023-01-29T13:45:55;162449.16;;;0.96;81.31
41688;BME280;27371;42.686;23.362;2023-01-29T13:50:50;162426.59;;;0.87;80.76
41688;BME280;27371;42.686;23.362;2023-01-29T13:53:28;162449.16;;;0.96;81.49
41688;BME280;27371;42.686;23.362;2023-01-29T13:58:59;162414.63;;;0.82;80.80
41688;BME280;27371;42.686;23.362;2023-01-29T14:06:51;162365.56;;;0.63;80.95
41688;BME280;27371;42.686;23.362;2023-01-29T14:12:02;162361.53;;;0.62;81.15
41688;BME280;27371;42.686;23.362;2023-01-29T14:15:17;162380.16;;;0.69;81.09
41688;BME280;27371;42.686;23.362;2023-01-29T14:25:52;162426.59;;;0.87;79.71
41688;BME280;27371;42.686;23.362;2023-01-29T14:28:23;162427.91;;;0.87;79.87
41688;BME280;27371;42.686;23.362;2023-01-29T14:30:51;162437.25;;;0.91;79.73
41688;BME280;27371;42.686;23.362;2023-01-29T14:33:37;162437.25;;;0.91;79.86
41688;BME280;27371;42.686;23.362;2023-01-29T14:36:08;162417.31;;;0.83;78.89
41688;BME280;27371;42.686;23.362;2023-01-29T14:38:35;162388.13;;;0.72;78.88
41688;BME280;27371;42.686;23.362;2023-01-29T14:41:28;162362.88;;;0.62;79.79
41688;BME280;27371;42.686;23.362;2023-01-29T14:46:58;162361.53;;;0.62;80.92
41688;BME280;27371;42.686;23.362;2023-01-29T14:49:52;162366.88;;;0.64;81.29
41688;BME280;27371;42.686;23.362;2023-01-29T14:52:21;162337.66;;;0.53;81.67
41688;BME280;27371;42.686;23.362;2023-01-29T14:54:49;162360.22;;;0.61;82.18